Time;durP1;ratioP1;P1;durP2;ratioP2;P2;SDS_P1;SDS_P2;PMS_P1;PMS_P2;Temp;Humidity;BMP_temperature;BMP_pressure;BME280_temperature;BME280_humidity;BME280_pressure;Samples;Min_cycle;Max_cycle;Signal;HPM_P1;HPM_P2
2022/04/10 00:00:43;;;;;;;;;;;;;;;6.90;49.97;100773.22;4975254;28;7829;-74
2022/04/10 00:03:10;;;;;;;;;;;;;;;6.89;49.99;100776.56;4991998;28;6816;-74
2022/04/10 00:05:36;;;;;;;;;;;;;;;6.86;49.93;100777.22;5012198;28;7615;-74
2022/04/10 00:08:02;;;;;;;;;;;;;;;6.85;50.24;100785.66;5005164;28;6877;-74
2022/04/10 00:10:28;;;;;;;;;;;;;;;6.84;49.94;100780.44;4968229;28;7015;-74
2022/04/10 00:12:55;;;;;;;;;;;;;;;6.81;50.05;100782.00;5008502;28;6957;-74
2022/04/10 00:15:21;;;;;;;;;;;;;;;6.82;49.83;100785.44;4975850;28;7031;-74
2022/04/10 00:17:46;;;;;;;;;;;;;;;6.79;50.38;100785.22;5012945;28;7153;-74
2022/04/10 00:20:12;;;;;;;;;;;;;;;6.77;50.37;100785.13;4988871;28;6994;-74
2022/04/10 00:22:46;;;;;;;;;;;;;;;6.76;50.45;100780.81;4978226;28;6879;-74
2022/04/10 00:25:15;;;;;;;;;;;;;;;6.73;50.58;100780.59;5009665;28;7225;-74
2022/04/10 00:27:42;;;;;;;;;;;;;;;6.74;50.70;100776.38;4975713;28;6887;-74
2022/04/10 00:30:10;;;;;;;;;;;;;;;6.73;50.49;100780.59;4967300;28;7215;-74
2022/04/10 00:32:36;;;;;;;;;;;;;;;6.74;51.02;100781.47;4976468;28;6807;-74
2022/04/10 00:35:07;;;;;;;;;;;;;;;6.72;50.81;100783.91;4970140;28;6862;-74
2022/04/10 00:37:34;;;;;;;;;;;;;;;6.72;50.88;100776.28;5012226;28;6831;-74
2022/04/10 00:40:01;;;;;;;;;;;;;;;6.71;50.92;100779.59;4988179;28;6800;-74
2022/04/10 00:42:38;;;;;;;;;;;;;;;6.71;51.08;100784.69;5007591;28;7197;-74
2022/04/10 00:45:06;;;;;;;;;;;;;;;6.70;50.89;100780.38;4978519;28;6824;-74
2022/04/10 00:47:32;;;;;;;;;;;;;;;6.69;51.06;100778.63;4982095;28;6803;-74
2022/04/10 00:50:06;;;;;;;;;;;;;;;6.68;50.96;100776.84;4970625;28;6919;-74
2022/04/10 00:52:34;;;;;;;;;;;;;;;6.65;50.94;100772.41;5000457;28;6815;-74
2022/04/10 00:54:59;;;;;;;;;;;;;;;6.64;51.54;100772.28;5005970;28;6815;-74
2022/04/10 00:57:26;;;;;;;;;;;;;;;6.63;51.38;100770.53;5007542;28;6815;-74
2022/04/10 00:59:52;;;;;;;;;;;;;;;6.62;51.55;100771.31;4955972;28;7224;-74
2022/04/10 01:02:18;;;;;;;;;;;;;;;6.62;51.17;100771.31;4969060;28;7129;-74
2022/04/10 01:04:46;;;;;;;;;;;;;;;6.61;51.48;100774.66;4983330;28;6957;-74
2022/04/10 01:07:13;;;;;;;;;;;;;;;6.61;51.65;100774.66;4984683;28;7298;-74
2022/04/10 01:09:40;;;;;;;;;;;;;;;6.61;51.84;100782.28;4987302;28;6808;-74
2022/04/10 01:12:08;;;;;;;;;;;;;;;6.61;51.77;100774.66;5001439;28;7890;-74
2022/04/10 01:14:35;;;;;;;;;;;;;;;6.61;52.15;100779.72;5000228;28;6912;-74
2022/04/10 01:17:01;;;;;;;;;;;;;;;6.62;52.08;100789.16;5007945;28;7038;-74
2022/04/10 01:19:28;;;;;;;;;;;;;;;6.64;51.90;100773.19;5009213;28;6967;-74
2022/04/10 01:22:03;;;;;;;;;;;;;;;6.68;52.15;100781.94;5007958;28;7086;-74
2022/04/10 01:24:29;;;;;;;;;;;;;;;6.74;51.93;100776.38;4973980;28;6812;-74
2022/04/10 01:26:55;;;;;;;;;;;;;;;6.78;52.79;100786.91;5004052;28;6967;-74
2022/04/10 01:29:21;;;;;;;;;;;;;;;6.84;52.02;100775.34;4978688;28;6787;-74
2022/04/10 01:31:47;;;;;;;;;;;;;;;6.92;52.61;100779.31;5004750;28;6859;-74
2022/04/10 01:34:16;;;;;;;;;;;;;;;6.98;52.67;100777.19;4972290;28;7145;-74
2022/04/10 01:36:44;;;;;;;;;;;;;;;7.03;52.73;100780.06;5007016;28;6999;-74
2022/04/10 01:39:12;;;;;;;;;;;;;;;7.10;52.54;100782.25;4974682;28;6884;-74
2022/04/10 01:41:38;;;;;;;;;;;;;;;7.17;52.14;100783.56;4975171;28;6836;-74
2022/04/10 01:44:06;;;;;;;;;;;;;;;7.27;52.86;100785.03;5001572;28;6957;-74
2022/04/10 01:46:33;;;;;;;;;;;;;;;7.32;52.37;100792.22;4975194;28;6892;-74
2022/04/10 01:49:00;;;;;;;;;;;;;;;7.39;53.08;100785.00;4989889;28;6997;-74
2022/04/10 01:51:27;;;;;;;;;;;;;;;7.44;52.52;100781.09;4955855;28;7328;-74
2022/04/10 01:53:54;;;;;;;;;;;;;;;7.50;52.63;100777.28;4987534;28;6997;-74
2022/04/10 01:56:21;;;;;;;;;;;;;;;7.57;51.99;100787.88;4976542;28;6831;-74
2022/04/10 01:58:48;;;;;;;;;;;;;;;7.62;52.03;100789.06;5009117;28;6850;-74
2022/04/10 02:01:16;;;;;;;;;;;;;;;7.69;52.76;100790.34;4973116;28;6832;-73
2022/04/10 02:03:43;;;;;;;;;;;;;;;7.72;51.86;100791.44;4985361;28;7003;-73
2022/04/10 02:06:11;;;;;;;;;;;;;;;7.78;51.87;100790.97;4997531;28;7107;-74
2022/04/10 02:08:38;;;;;;;;;;;;;;;7.83;51.60;100783.59;5004910;28;6824;-74
2022/04/10 02:11:12;;;;;;;;;;;;;;;7.88;51.91;100790.78;5015503;28;7037;-74
2022/04/10 02:13:39;;;;;;;;;;;;;;;7.92;52.28;100797.88;5012361;28;6803;-74
2022/04/10 02:16:18;;;;;;;;;;;;;;;7.97;52.22;100792.16;5027581;28;6811;-74
2022/04/10 02:18:44;;;;;;;;;;;;;;;8.00;51.41;100787.25;4986296;28;6815;-74
2022/04/10 02:21:10;;;;;;;;;;;;;;;8.04;51.87;100789.22;4985758;28;7003;-74
2022/04/10 02:23:37;;;;;;;;;;;;;;;8.08;51.32;100783.53;5008980;28;7252;-74
2022/04/10 02:26:04;;;;;;;;;;;;;;;8.11;51.12;100778.63;5030216;28;6875;-74
2022/04/10 02:28:30;;;;;;;;;;;;;;;8.16;51.99;100784.00;4997208;28;6883;-74
2022/04/10 02:30:57;;;;;;;;;;;;;;;8.20;51.84;100786.84;5004743;28;6779;-74
2022/04/10 02:33:23;;;;;;;;;;;;;;;8.23;51.59;100796.38;5008643;28;6993;-74
2022/04/10 02:35:49;;;;;;;;;;;;;;;8.26;51.40;100791.50;5000451;28;6791;-74
2022/04/10 02:38:16;;;;;;;;;;;;;;;8.31;51.05;100789.22;5000000;28;6791;-74
2022/04/10 02:40:43;;;;;;;;;;;;;;;8.34;50.55;100794.53;5033297;28;6824;-74
2022/04/10 02:43:14;;;;;;;;;;;;;;;8.35;51.55;100788.63;4990734;28;6883;-74
2022/04/10 02:45:41;;;;;;;;;;;;;;;8.38;50.71;100791.34;4994221;28;6816;-74
2022/04/10 02:48:07;;;;;;;;;;;;;;;8.40;50.90;100789.81;5018908;28;6796;-74
2022/04/10 02:50:39;;;;;;;;;;;;;;;8.43;51.60;100790.00;4999678;28;6804;-74
2022/04/10 02:53:06;;;;;;;;;;;;;;;8.44;51.54;100793.41;5008257;28;8243;-74
2022/04/10 02:55:31;;;;;;;;;;;;;;;8.45;50.73;100798.63;5017639;28;6875;-74
2022/04/10 02:57:57;;;;;;;;;;;;;;;8.48;50.37;100788.59;5012328;28;7296;-74
2022/04/10 03:00:23;;;;;;;;;;;;;;;8.51;50.13;100797.28;5013813;28;6783;-74
2022/04/10 03:02:48;;;;;;;;;;;;;;;8.50;50.41;100795.47;4978604;28;7166;-74
2022/04/10 03:05:15;;;;;;;;;;;;;;;8.48;50.52;100791.16;5011794;28;7207;-74
2022/04/10 03:07:41;;;;;;;;;;;;;;;8.51;50.85;100807.50;4982430;28;6876;-74
2022/04/10 03:10:07;;;;;;;;;;;;;;;8.50;51.41;100808.25;4970029;28;6956;-75
2022/04/10 03:12:33;;;;;;;;;;;;;;;8.51;50.17;100808.38;4979155;28;6796;-75
2022/04/10 03:14:58;;;;;;;;;;;;;;;8.49;50.62;100799.72;5009191;28;6872;-75
2022/04/10 03:17:25;;;;;;;;;;;;;;;8.47;51.47;100807.25;4992060;28;7203;-74
2022/04/10 03:19:51;;;;;;;;;;;;;;;8.45;51.60;100808.84;5012242;28;6899;-74
2022/04/10 03:22:16;;;;;;;;;;;;;;;8.44;50.97;100804.53;4988393;28;6968;-75
2022/04/10 03:24:42;;;;;;;;;;;;;;;8.43;50.53;100812.97;4980695;28;6899;-75
2022/04/10 03:27:08;;;;;;;;;;;;;;;8.43;51.24;100809.53;4982058;28;7098;-75
2022/04/10 03:29:33;;;;;;;;;;;;;;;8.43;51.00;100815.53;5006428;28;6958;-74
2022/04/10 03:31:59;;;;;;;;;;;;;;;8.44;50.52;100811.28;5005169;28;7045;-74
2022/04/10 03:34:25;;;;;;;;;;;;;;;8.44;50.90;100804.53;4980547;28;7135;-74
2022/04/10 03:36:51;;;;;;;;;;;;;;;8.45;51.87;100802.84;4972898;28;6804;-74
2022/04/10 03:39:16;;;;;;;;;;;;;;;8.45;51.71;100813.06;4989509;28;6975;-74
2022/04/10 03:41:42;;;;;;;;;;;;;;;8.45;51.83;100811.41;5007202;28;6898;-74
2022/04/10 03:44:08;;;;;;;;;;;;;;;8.46;50.85;100817.41;4974621;28;6874;-74
2022/04/10 03:46:33;;;;;;;;;;;;;;;8.47;51.41;100812.38;4977607;28;6816;-74
2022/04/10 03:48:59;;;;;;;;;;;;;;;8.48;51.56;100814.13;4977405;28;6933;-74
2022/04/10 03:51:25;;;;;;;;;;;;;;;8.48;52.25;100821.81;5010125;28;6779;-75
2022/04/10 03:53:50;;;;;;;;;;;;;;;8.50;51.35;100810.78;5011587;28;6871;-74
2022/04/10 03:56:16;;;;;;;;;;;;;;;8.50;51.46;100821.91;4966891;28;6799;-74
2022/04/10 03:58:42;;;;;;;;;;;;;;;8.51;52.17;100823.72;5017990;28;7178;-74
2022/04/10 04:01:09;;;;;;;;;;;;;;;8.53;51.93;100818.72;4977959;28;7218;-74
2022/04/10 04:03:35;;;;;;;;;;;;;;;8.53;52.31;100813.59;4971860;28;6992;-74
2022/04/10 04:06:01;;;;;;;;;;;;;;;8.52;52.29;100814.38;4986929;28;7365;-75
2022/04/10 04:08:27;;;;;;;;;;;;;;;8.55;51.53;100824.78;5010344;28;6791;-75
2022/04/10 04:10:52;;;;;;;;;;;;;;;8.53;52.02;100827.25;5003332;28;7182;-75
2022/04/10 04:13:18;;;;;;;;;;;;;;;8.54;51.39;100833.25;5007781;28;6859;-75
2022/04/10 04:15:44;;;;;;;;;;;;;;;8.52;51.26;100838.25;4986659;28;7194;-75
2022/04/10 04:18:09;;;;;;;;;;;;;;;8.52;50.75;100839.94;5007085;28;7438;-75
2022/04/10 04:20:35;;;;;;;;;;;;;;;8.53;51.48;100844.25;4973255;28;6883;-75
2022/04/10 04:23:01;;;;;;;;;;;;;;;8.52;50.45;100845.06;5013535;28;7130;-75
2022/04/10 04:25:26;;;;;;;;;;;;;;;8.52;50.45;100850.16;5009687;28;6823;-75
2022/04/10 04:27:52;;;;;;;;;;;;;;;8.51;50.77;100856.06;5001355;28;6991;-75
2022/04/10 04:30:18;;;;;;;;;;;;;;;8.50;50.69;100850.00;4979276;28;6831;-75
2022/04/10 04:32:43;;;;;;;;;;;;;;;8.51;51.75;100859.47;4976391;28;6947;-75
2022/04/10 04:35:10;;;;;;;;;;;;;;;8.51;51.03;100858.63;4980426;28;7802;-75
2022/04/10 04:37:40;;;;;;;;;;;;;;;8.52;51.07;100855.25;4978173;28;7128;-75
2022/04/10 04:40:08;;;;;;;;;;;;;;;8.52;50.33;100855.25;4982736;28;6843;-75
2022/04/10 04:42:34;;;;;;;;;;;;;;;8.53;50.39;100857.91;4960911;28;7042;-74
2022/04/10 04:44:59;;;;;;;;;;;;;;;8.53;51.20;100859.59;4977442;28;6907;-75
2022/04/10 04:47:25;;;;;;;;;;;;;;;8.52;50.36;100863.78;5005410;28;6815;-75
2022/04/10 04:49:51;;;;;;;;;;;;;;;8.52;51.30;100870.59;4973227;28;6833;-75
2022/04/10 04:52:17;;;;;;;;;;;;;;;8.47;51.78;100866.03;5008532;28;6998;-75
2022/04/10 04:54:43;;;;;;;;;;;;;;;8.48;51.92;100880.56;5007119;28;6796;-75
2022/04/10 04:57:09;;;;;;;;;;;;;;;8.48;50.81;100879.69;4968245;28;7118;-75
2022/04/10 04:59:34;;;;;;;;;;;;;;;8.47;51.22;100876.25;5012610;28;6927;-75
2022/04/10 05:02:00;;;;;;;;;;;;;;;8.47;50.75;100880.50;4974392;28;7288;-74
2022/04/10 05:04:26;;;;;;;;;;;;;;;8.48;50.75;100883.13;4988264;28;6799;-74
2022/04/10 05:06:51;;;;;;;;;;;;;;;8.47;51.31;100878.78;5010723;28;6838;-74
2022/04/10 05:09:17;;;;;;;;;;;;;;;8.47;51.56;100881.34;4989592;28;6898;-74
2022/04/10 05:11:42;;;;;;;;;;;;;;;8.49;51.40;100881.47;4973555;28;6882;-74
2022/04/10 05:14:08;;;;;;;;;;;;;;;8.52;51.15;100883.38;5010988;28;7258;-74
2022/04/10 05:16:34;;;;;;;;;;;;;;;8.54;51.83;100886.91;4974581;28;6788;-74
2022/04/10 05:19:00;;;;;;;;;;;;;;;8.54;51.26;100879.25;4968534;28;6966;-74
2022/04/10 05:21:25;;;;;;;;;;;;;;;8.56;51.49;100885.31;4976283;28;7023;-75
2022/04/10 05:23:51;;;;;;;;;;;;;;;8.56;51.07;100890.44;5008418;28;7006;-75
2022/04/10 05:26:17;;;;;;;;;;;;;;;8.58;51.11;100893.97;4992008;28;7280;-75
2022/04/10 05:28:42;;;;;;;;;;;;;;;8.60;51.21;100895.84;5002714;28;6799;-75
2022/04/10 05:31:08;;;;;;;;;;;;;;;8.63;51.62;100900.25;5006243;28;6792;-74
2022/04/10 05:33:35;;;;;;;;;;;;;;;8.66;52.27;100900.44;4971864;28;6875;-74
2022/04/10 05:36:02;;;;;;;;;;;;;;;8.69;51.86;100907.44;4985302;28;7736;-74
2022/04/10 05:38:27;;;;;;;;;;;;;;;8.71;51.30;100909.31;4974509;28;6796;-74
2022/04/10 05:40:53;;;;;;;;;;;;;;;8.75;51.79;100916.38;5003300;28;7287;-74
2022/04/10 05:43:23;;;;;;;;;;;;;;;8.80;52.77;100910.69;4987318;28;7808;-74
2022/04/10 05:45:50;;;;;;;;;;;;;;;8.82;51.98;100907.41;4967974;28;9559;-74
2022/04/10 05:48:16;;;;;;;;;;;;;;;8.87;52.24;100916.28;4967480;28;6882;-75
2022/04/10 05:50:42;;;;;;;;;;;;;;;8.92;52.10;100924.22;4982628;28;7840;-75
2022/04/10 05:53:08;;;;;;;;;;;;;;;8.95;51.48;100921.84;4989674;28;7108;-74
2022/04/10 05:55:34;;;;;;;;;;;;;;;9.00;52.11;100924.72;4976822;28;6795;-74
2022/04/10 05:58:04;;;;;;;;;;;;;;;9.05;51.88;100920.78;4980198;28;6776;-74
2022/04/10 06:00:30;;;;;;;;;;;;;;;9.08;51.38;100926.06;5002739;28;6812;-74
2022/04/10 06:02:55;;;;;;;;;;;;;;;9.13;51.60;100934.03;5010924;28;6800;-74
2022/04/10 06:05:22;;;;;;;;;;;;;;;9.20;52.50;100935.28;4974046;28;6854;-74
2022/04/10 06:07:48;;;;;;;;;;;;;;;9.26;51.99;100945.91;5012322;28;7670;-74
2022/04/10 06:10:15;;;;;;;;;;;;;;;9.31;51.62;100940.28;5003530;28;7320;-74
2022/04/10 06:12:40;;;;;;;;;;;;;;;9.37;51.67;100936.34;4985654;28;6791;-74
2022/04/10 06:15:07;;;;;;;;;;;;;;;9.43;51.32;100944.38;4979793;28;6799;-74
2022/04/10 06:17:32;;;;;;;;;;;;;;;9.49;51.76;100944.78;4987411;28;7074;-74
2022/04/10 06:19:59;;;;;;;;;;;;;;;9.54;52.05;100940.81;4981992;28;7220;-74
2022/04/10 06:22:25;;;;;;;;;;;;;;;9.58;51.41;100950.47;5011934;28;7259;-74
2022/04/10 06:24:51;;;;;;;;;;;;;;;9.60;51.63;100960.75;4981430;28;6953;-74
2022/04/10 06:27:17;;;;;;;;;;;;;;;9.63;51.58;100967.75;4984164;28;7120;-74
2022/04/10 06:29:43;;;;;;;;;;;;;;;9.66;51.37;100968.81;4962371;28;6863;-74
2022/04/10 06:32:08;;;;;;;;;;;;;;;9.72;51.63;100960.63;5065189;23;6791;-75
2022/04/10 06:34:34;;;;;;;;;;;;;;;9.78;51.11;100967.78;4995542;28;6991;-75
2022/04/10 06:37:00;;;;;;;;;;;;;;;9.85;51.00;100975.97;4993322;28;6848;-74
2022/04/10 06:39:26;;;;;;;;;;;;;;;9.95;51.25;100971.38;4980338;28;7831;-75
2022/04/10 06:41:51;;;;;;;;;;;;;;;10.02;51.29;100973.50;4995637;28;6867;-75
2022/04/10 06:44:17;;;;;;;;;;;;;;;10.08;50.72;100967.84;4983930;28;6852;-75
2022/04/10 06:46:43;;;;;;;;;;;;;;;10.11;50.95;100975.75;4996304;28;6808;-75
2022/04/10 06:49:09;;;;;;;;;;;;;;;10.12;50.00;100985.19;4995282;28;7304;-75
2022/04/10 06:51:34;;;;;;;;;;;;;;;10.12;50.30;100980.94;4993749;28;7098;-75
2022/04/10 06:54:00;;;;;;;;;;;;;;;10.12;50.23;100982.63;4981098;28;6788;-75
2022/04/10 06:56:26;;;;;;;;;;;;;;;10.13;50.17;100976.72;4992206;28;7320;-76
2022/04/10 06:58:51;;;;;;;;;;;;;;;10.14;50.09;100974.25;4988901;28;6952;-77
2022/04/10 07:01:17;;;;;;;;;;;;;;;10.18;50.43;100984.66;4988163;28;6855;-76
2022/04/10 07:03:43;;;;;;;;;;;;;;;10.22;50.28;100981.47;4977120;28;6768;-76
2022/04/10 07:06:08;;;;;;;;;;;;;;;10.25;50.63;100987.66;4975740;28;6803;-75
2022/04/10 07:08:37;;;;;;;;;;;;;;;10.30;50.33;100990.50;4974218;28;6775;-75
2022/04/10 07:11:05;;;;;;;;;;;;;;;10.32;50.34;100986.34;4983440;28;9530;-75
2022/04/10 07:13:31;;;;;;;;;;;;;;;10.33;49.41;100988.09;4993054;23;6864;-73
2022/04/10 07:15:57;;;;;;;;;;;;;;;10.37;50.01;101000.31;4992394;28;7100;-73
2022/04/10 07:18:23;;;;;;;;;;;;;;;10.40;49.92;101003.06;5002115;23;7715;-74
2022/04/10 07:20:48;;;;;;;;;;;;;;;10.45;49.75;100999.94;4988277;28;7217;-74
2022/04/10 07:25:58;;;;;;;;;;;;;;;10.53;50.08;100996.13;4998633;28;7018;-75
2022/04/10 07:28:24;;;;;;;;;;;;;;;10.56;50.38;100996.28;4986895;28;6901;-75
2022/04/10 07:30:50;;;;;;;;;;;;;;;10.62;50.25;100995.75;5001745;28;7106;-75
2022/04/10 07:33:16;;;;;;;;;;;;;;;10.67;50.18;101002.91;4998080;28;7676;-75
2022/04/10 07:35:44;;;;;;;;;;;;;;;10.72;49.65;101010.88;4979014;28;6820;-75
2022/04/10 07:38:10;;;;;;;;;;;;;;;10.78;49.72;101007.78;4994925;28;6811;-75
2022/04/10 07:40:38;;;;;;;;;;;;;;;10.83;49.56;101009.78;4995532;28;6800;-75
2022/04/10 07:43:04;;;;;;;;;;;;;;;10.89;48.92;101016.94;5000946;28;6796;-75
2022/04/10 07:48:15;;;;;;;;;;;;;;;10.93;48.74;101024.03;4990177;28;6904;-75
2022/04/10 07:50:41;;;;;;;;;;;;;;;10.95;48.65;101018.97;4985705;28;7288;-75
2022/04/10 07:53:07;;;;;;;;;;;;;;;11.00;48.97;101025.25;5001005;28;6807;-75
2022/04/10 07:55:33;;;;;;;;;;;;;;;11.06;49.01;101030.75;5000385;28;6938;-75
2022/04/10 07:57:58;;;;;;;;;;;;;;;11.14;48.84;101030.28;5001639;28;7017;-75
2022/04/10 08:00:25;;;;;;;;;;;;;;;11.22;48.45;101031.59;4997948;28;6884;-75
2022/04/10 08:02:52;;;;;;;;;;;;;;;11.27;47.81;101032.75;4983692;28;6788;-75
2022/04/10 08:05:19;;;;;;;;;;;;;;;11.36;48.18;101027.22;5004732;28;6812;-75
2022/04/10 08:07:46;;;;;;;;;;;;;;;11.45;47.78;101032.84;4997656;28;7031;-75
2022/04/10 08:10:14;;;;;;;;;;;;;;;11.55;47.19;101039.38;5000525;28;6807;-75
2022/04/10 08:12:41;;;;;;;;;;;;;;;11.64;47.30;101033.84;4978470;28;6887;-75
2022/04/10 08:15:07;;;;;;;;;;;;;;;11.71;46.92;101043.66;4977542;28;7009;-75
2022/04/10 08:17:33;;;;;;;;;;;;;;;11.79;46.51;101047.53;4979392;28;6897;-75
2022/04/10 08:20:03;;;;;;;;;;;;;;;11.88;46.56;101053.91;4980709;28;6915;-75
2022/04/10 08:22:32;;;;;;;;;;;;;;;11.95;46.14;101056.03;4981620;28;7131;-75
2022/04/10 08:25:04;;;;;;;;;;;;;;;12.02;46.35;101047.88;4981109;28;7112;-75
2022/04/10 08:27:30;;;;;;;;;;;;;;;12.11;45.62;101050.03;4977934;28;6861;-75
2022/04/10 08:29:57;;;;;;;;;;;;;;;12.21;45.36;101048.84;4994886;28;7129;-75
2022/04/10 08:32:23;;;;;;;;;;;;;;;12.30;44.67;101049.31;4979599;28;7167;-75
2022/04/10 08:34:49;;;;;;;;;;;;;;;12.40;44.89;101054.91;4962295;28;7082;-75
2022/04/10 08:37:14;;;;;;;;;;;;;;;12.52;44.37;101058.09;4997896;28;6780;-75
2022/04/10 08:39:40;;;;;;;;;;;;;;;12.66;44.19;101057.94;4997084;28;6791;-76
2022/04/10 08:42:08;;;;;;;;;;;;;;;12.79;43.38;101065.44;4966697;28;7237;-76
2022/04/10 08:44:35;;;;;;;;;;;;;;;12.86;42.72;101062.38;4983145;28;6796;-76
2022/04/10 08:47:02;;;;;;;;;;;;;;;12.89;42.61;101066.75;4982318;28;6891;-76
2022/04/10 08:49:29;;;;;;;;;;;;;;;12.93;42.21;101063.56;4980197;28;7617;-75
2022/04/10 08:51:58;;;;;;;;;;;;;;;12.98;41.90;101066.34;4984070;28;6804;-75
2022/04/10 08:54:26;;;;;;;;;;;;;;;13.01;41.75;101063.91;4985391;28;6815;-75
2022/04/10 08:56:52;;;;;;;;;;;;;;;13.05;41.07;101069.28;4974379;28;7461;-75
2022/04/10 08:59:20;;;;;;;;;;;;;;;13.11;40.93;101068.69;4980014;28;6989;-76
2022/04/10 09:01:56;;;;;;;;;;;;;;;13.17;41.41;101068.09;4994939;28;6812;-75
2022/04/10 09:04:23;;;;;;;;;;;;;;;13.26;40.94;101072.84;4971575;28;6915;-75
2022/04/10 09:07:09;;;;;;;;;;;;;;;13.38;41.34;101067.41;4972117;28;7004;-75
2022/04/10 09:09:54;;;;;;;;;;;;;;;13.49;40.72;101076.53;4975829;28;6819;-75
2022/04/10 09:12:20;;;;;;;;;;;;;;;13.61;40.17;101069.38;4996619;28;7135;-75
2022/04/10 09:14:46;;;;;;;;;;;;;;;13.74;39.81;101073.41;4981648;28;6965;-75
2022/04/10 09:17:18;;;;;;;;;;;;;;;13.89;40.45;101074.88;4981089;28;7418;-75
2022/04/10 09:19:53;;;;;;;;;;;;;;;14.05;39.93;101073.91;4995722;28;6811;-75
2022/04/10 09:22:35;;;;;;;;;;;;;;;14.18;39.17;101070.16;4971082;28;7116;-76
2022/04/10 09:25:07;;;;;;;;;;;;;;;14.33;39.07;101057.03;4979615;28;6812;-76
2022/04/10 09:27:37;;;;;;;;;;;;;;;14.51;39.63;101056.97;4965047;28;6972;-76
2022/04/10 09:30:07;;;;;;;;;;;;;;;14.67;38.64;101067.91;4980215;28;6934;-76
2022/04/10 09:32:55;;;;;;;;;;;;;;;14.81;38.96;101064.25;4980955;28;7182;-76
2022/04/10 09:35:23;;;;;;;;;;;;;;;14.86;38.10;101073.06;4993332;28;6812;-75
2022/04/10 09:37:53;;;;;;;;;;;;;;;14.83;38.28;101064.31;4978758;28;6816;-76
2022/04/10 09:40:35;;;;;;;;;;;;;;;14.69;37.21;101071.47;4975053;28;6883;-75
2022/04/10 09:43:12;;;;;;;;;;;;;;;14.64;38.34;101054.91;4979089;28;6971;-75
2022/04/10 09:45:43;;;;;;;;;;;;;;;14.77;38.10;101062.34;4976780;28;7511;-75
2022/04/10 09:48:20;;;;;;;;;;;;;;;15.07;37.75;101064.44;4979577;28;7073;-75
2022/04/10 09:50:52;;;;;;;;;;;;;;;15.63;37.01;101058.81;4979194;28;7284;-75
2022/04/10 09:53:18;;;;;;;;;;;;;;;16.51;36.91;101053.38;4980216;28;6819;-75
2022/04/10 09:55:51;;;;;;;;;;;;;;;17.54;35.21;101046.25;4996418;28;7018;-75
2022/04/10 09:58:19;;;;;;;;;;;;;;;18.15;34.32;101042.81;4983747;28;7027;-75
2022/04/10 10:00:47;;;;;;;;;;;;;;;18.29;34.03;101045.78;4997883;28;7163;-75
2022/04/10 10:03:14;;;;;;;;;;;;;;;18.30;34.01;101050.13;4983047;28;6807;-75
2022/04/10 10:05:41;;;;;;;;;;;;;;;17.99;33.45;101049.25;5000350;28;6796;-75
2022/04/10 10:08:08;;;;;;;;;;;;;;;17.79;33.92;101052.16;4963408;28;6823;-75
2022/04/10 10:10:36;;;;;;;;;;;;;;;18.20;33.35;101048.13;4981515;28;7225;-76
2022/04/10 10:13:06;;;;;;;;;;;;;;;18.48;32.73;101046.25;4983666;28;6803;-76
2022/04/10 10:15:34;;;;;;;;;;;;;;;18.89;32.08;101049.00;4981393;28;7223;-76
2022/04/10 10:18:03;;;;;;;;;;;;;;;19.64;31.58;101035.09;4980674;28;6887;-76
2022/04/10 10:20:30;;;;;;;;;;;;;;;20.50;30.94;101035.00;4967706;28;6831;-76
2022/04/10 10:23:00;;;;;;;;;;;;;;;21.30;29.81;101029.28;4982131;28;6824;-75
2022/04/10 10:26:14;;;;;;;;;;;;;;;22.12;29.11;101024.19;4982370;28;6823;-75
2022/04/10 10:29:03;;;;;;;;;;;;;;;22.94;29.00;101026.63;4983818;28;7361;-75
2022/04/10 10:31:57;;;;;;;;;;;;;;;23.31;27.79;101032.13;4958981;28;7097;-75
2022/04/10 10:34:26;;;;;;;;;;;;;;;22.69;27.20;101027.34;4979429;28;7208;-75
2022/04/10 10:36:54;;;;;;;;;;;;;;;21.61;27.49;101033.16;4983472;28;6828;-75
2022/04/10 10:39:21;;;;;;;;;;;;;;;20.71;28.54;101033.59;4983849;28;8185;-75
2022/04/10 10:41:52;;;;;;;;;;;;;;;20.75;29.00;101040.59;4998036;28;7052;-75
2022/04/10 10:44:41;;;;;;;;;;;;;;;21.44;28.37;101035.56;4990821;28;6970;-75
2022/04/10 10:47:23;;;;;;;;;;;;;;;22.29;27.73;101030.44;4980896;28;6959;-75
2022/04/10 10:49:53;;;;;;;;;;;;;;;23.06;26.89;101026.69;4997684;28;6896;-75
2022/04/10 10:52:20;;;;;;;;;;;;;;;23.54;26.52;101018.25;4984051;28;6974;-75
2022/04/10 10:54:58;;;;;;;;;;;;;;;24.05;25.95;101017.59;4985977;28;6982;-75
2022/04/10 10:57:40;;;;;;;;;;;;;;;24.62;25.74;101017.59;4986996;28;6812;-75
2022/04/10 11:00:16;;;;;;;;;;;;;;;25.08;25.25;101000.94;4984254;28;7194;-75
2022/04/10 11:02:50;;;;;;;;;;;;;;;25.44;24.99;100998.19;4986389;28;6812;-76
2022/04/10 11:05:27;;;;;;;;;;;;;;;25.93;24.55;101004.97;4986726;28;6900;-76
2022/04/10 11:07:58;;;;;;;;;;;;;;;26.23;24.00;100999.56;4987434;28;7458;-76
2022/04/10 11:10:28;;;;;;;;;;;;;;;26.37;23.81;100996.81;4986352;28;7033;-76
2022/04/10 11:13:01;;;;;;;;;;;;;;;26.40;23.17;100991.53;4985555;28;7214;-76
2022/04/10 11:15:52;;;;;;;;;;;;;;;26.16;23.38;101000.44;4982619;28;6808;-76
2022/04/10 11:18:25;;;;;;;;;;;;;;;25.18;23.44;101000.91;4985611;28;6974;-76
2022/04/10 11:20:56;;;;;;;;;;;;;;;24.08;24.04;101004.50;4983703;28;6816;-76
2022/04/10 11:23:29;;;;;;;;;;;;;;;23.68;24.06;100995.66;4964438;28;7199;-75
2022/04/10 11:26:02;;;;;;;;;;;;;;;23.49;24.23;101004.31;5003455;28;6879;-76
2022/04/10 11:28:31;;;;;;;;;;;;;;;23.37;24.87;101005.13;5002364;28;6988;-76
2022/04/10 11:30:56;;;;;;;;;;;;;;;23.74;24.22;100999.13;4983366;28;6820;-76
2022/04/10 11:33:22;;;;;;;;;;;;;;;24.22;23.87;101000.13;5001230;28;6784;-76
2022/04/10 11:35:56;;;;;;;;;;;;;;;24.69;23.08;101002.75;5000691;28;6800;-76
2022/04/10 11:38:24;;;;;;;;;;;;;;;25.10;22.92;101001.81;4984331;28;7194;-76
2022/04/10 11:40:52;;;;;;;;;;;;;;;25.21;22.46;101003.56;4986277;28;6904;-76
2022/04/10 11:43:21;;;;;;;;;;;;;;;25.47;22.13;101005.19;5001280;28;6807;-76
2022/04/10 11:45:53;;;;;;;;;;;;;;;25.71;22.25;100998.97;4988840;28;6808;-76
2022/04/10 11:48:19;;;;;;;;;;;;;;;26.00;22.10;101008.44;4979677;28;6807;-76
2022/04/10 11:50:45;;;;;;;;;;;;;;;26.27;21.92;101003.00;4983296;28;6860;-76
2022/04/10 11:53:13;;;;;;;;;;;;;;;26.40;21.88;101002.03;4976495;28;7042;-76
2022/04/10 11:55:48;;;;;;;;;;;;;;;26.03;21.43;100999.66;5001262;28;6808;-76
2022/04/10 11:58:20;;;;;;;;;;;;;;;25.58;22.31;100998.16;4985765;28;6892;-76
2022/04/10 12:00:58;;;;;;;;;;;;;;;25.61;21.75;101000.78;4984975;28;7054;-74
2022/04/10 12:03:27;;;;;;;;;;;;;;;25.54;21.42;100988.56;4985267;28;6819;-75
2022/04/10 12:05:54;;;;;;;;;;;;;;;25.72;21.83;100991.97;4959480;28;7004;-75
2022/04/10 12:08:22;;;;;;;;;;;;;;;26.24;22.09;100990.78;4985559;28;7747;-75
2022/04/10 12:11:00;;;;;;;;;;;;;;;26.50;21.57;100986.19;4984702;28;6808;-75
2022/04/10 12:13:38;;;;;;;;;;;;;;;26.30;21.68;100988.09;4985559;28;7190;-75
2022/04/10 12:16:16;;;;;;;;;;;;;;;26.36;21.37;100978.44;4959519;28;9182;-74
2022/04/10 12:18:52;;;;;;;;;;;;;;;26.44;21.12;100982.72;5001262;28;7128;-75
2022/04/10 12:21:21;;;;;;;;;;;;;;;25.70;21.33;100975.38;4998961;28;6816;-75
2022/04/10 12:24:03;;;;;;;;;;;;;;;25.31;21.73;100984.28;5001303;28;7374;-75
2022/04/10 12:26:32;;;;;;;;;;;;;;;25.42;21.58;100983.34;4983382;28;6811;-75
2022/04/10 12:28:58;;;;;;;;;;;;;;;25.31;21.13;100981.66;4984865;28;6907;-75
2022/04/10 12:31:24;;;;;;;;;;;;;;;24.62;20.93;100985.28;4999417;28;6884;-75
2022/04/10 12:33:50;;;;;;;;;;;;;;;23.64;21.00;100979.94;4966782;28;8739;-75
2022/04/10 12:36:17;;;;;;;;;;;;;;;23.18;21.92;100989.31;4981427;28;7533;-75
2022/04/10 12:38:43;;;;;;;;;;;;;;;23.16;22.37;100984.06;4954881;28;7875;-74
2022/04/10 12:41:09;;;;;;;;;;;;;;;22.86;22.15;100983.03;4961147;28;6935;-74
2022/04/10 12:43:35;;;;;;;;;;;;;;;22.36;22.51;100983.50;4983972;28;6875;-74
2022/04/10 12:46:20;;;;;;;;;;;;;;;21.66;22.43;100988.88;4978461;28;7423;-74
2022/04/10 12:48:46;;;;;;;;;;;;;;;21.03;23.05;100987.22;4982929;28;7387;-74
2022/04/10 12:51:14;;;;;;;;;;;;;;;20.43;23.68;100987.16;4981348;28;6840;-74
2022/04/10 12:53:48;;;;;;;;;;;;;;;19.80;24.23;100987.75;4967990;28;7172;-74
2022/04/10 12:56:22;;;;;;;;;;;;;;;19.15;24.70;100986.41;4973151;28;6892;-74
2022/04/10 12:58:51;;;;;;;;;;;;;;;18.53;25.41;100993.63;4980552;28;7044;-75
2022/04/10 13:01:33;;;;;;;;;;;;;;;18.03;25.76;100994.03;4994666;28;8001;-75
2022/04/10 13:04:01;;;;;;;;;;;;;;;17.85;26.46;100986.63;4989895;28;7019;-74